Time;durP1;ratioP1;P1;durP2;ratioP2;P2;SDS_P1;SDS_P2;PMS_P1;PMS_P2;Temp;Humidity;BMP_temperature;BMP_pressure;BME280_temperature;BME280_humidity;BME280_pressure;Samples;Min_cycle;Max_cycle;Signal;HPM_P1;HPM_P2
2022/10/07 00:01:17;;;;;;;31.70;5.38;;;12.00;99.90;;;;;;5017034;28;20049;-68
2022/10/07 00:03:43;;;;;;;52.15;5.88;;;11.90;99.90;;;;;;5016589;28;20041;-68
2022/10/07 00:06:17;;;;;;;46.10;5.88;;;11.80;99.90;;;;;;5016361;28;20080;-68
2022/10/07 00:08:45;;;;;;;34.42;5.95;;;11.70;99.90;;;;;;5016937;28;20026;-68
2022/10/07 00:11:18;;;;;;;36.75;4.80;;;11.60;99.90;;;;;;5016813;28;20501;-68
2022/10/07 00:13:45;;;;;;;39.50;6.20;;;11.50;99.90;;;;;;5016234;28;20485;-67
2022/10/07 00:16:13;;;;;;;32.72;4.47;;;11.40;99.90;;;;;;5016362;28;20022;-67
2022/10/07 00:18:40;;;;;;;43.60;5.88;;;11.40;99.90;;;;;;5017655;28;20036;-67
2022/10/07 00:21:08;;;;;;;49.42;6.40;;;11.30;99.90;;;;;;5016680;28;20084;-67
2022/10/07 00:23:33;;;;;;;40.03;6.07;;;11.20;99.90;;;;;;5016269;28;20049;-68
2022/10/07 00:26:04;;;;;;;38.03;5.22;;;11.30;99.90;;;;;;5015690;28;20061;-67
2022/10/07 00:28:30;;;;;;;53.22;5.85;;;11.20;99.90;;;;;;5016317;28;20053;-68
2022/10/07 00:30:57;;;;;;;41.53;5.28;;;11.20;99.90;;;;;;5016335;28;20430;-68
2022/10/07 00:33:23;;;;;;;34.03;6.63;;;11.20;99.90;;;;;;5016364;28;20030;-68
2022/10/07 00:35:48;;;;;;;39.67;5.07;;;11.20;99.90;;;;;;5016316;28;20022;-68
2022/10/07 00:38:14;;;;;;;26.05;4.00;;;11.20;99.90;;;;;;5016337;28;20061;-68
2022/10/07 00:40:40;;;;;;;38.67;4.20;;;11.10;99.90;;;;;;5015778;28;20033;-68
2022/10/07 00:43:26;;;;;;;41.80;5.70;;;11.10;99.90;;;;;;5016091;28;20033;-68
2022/10/07 00:45:54;;;;;;;28.23;4.13;;;11.10;99.90;;;;;;5016118;28;20025;-68
2022/10/07 00:48:25;;;;;;;38.67;5.28;;;11.10;99.90;;;;;;5015427;28;20026;-68
2022/10/07 00:50:54;;;;;;;42.33;4.20;;;11.00;99.90;;;;;;5016079;28;20084;-68
2022/10/07 00:53:21;;;;;;;31.80;4.65;;;11.00;99.90;;;;;;5015586;28;20509;-67
2022/10/07 00:55:47;;;;;;;30.67;5.07;;;11.00;99.90;;;;;;5015246;28;20482;-68
2022/10/07 00:58:13;;;;;;;40.10;5.30;;;11.00;99.90;;;;;;5015716;28;20112;-68
2022/10/07 01:00:39;;;;;;;27.02;4.40;;;10.90;99.90;;;;;;5015853;28;20107;-68
2022/10/07 01:03:05;;;;;;;42.35;5.32;;;10.90;99.90;;;;;;5015744;28;20481;-68
2022/10/07 01:05:31;;;;;;;51.63;7.43;;;11.00;99.90;;;;;;5015174;28;20025;-68
2022/10/07 01:07:58;;;;;;;41.65;5.10;;;11.00;99.90;;;;;;5015820;28;20370;-68
2022/10/07 01:10:30;;;;;;;31.23;4.85;;;11.00;99.90;;;;;;5015683;28;20099;-68
2022/10/07 01:13:16;;;;;;;33.30;4.55;;;10.90;99.90;;;;;;5015222;28;20045;-67
2022/10/07 01:15:44;;;;;;;42.28;4.75;;;11.00;99.90;;;;;;5015425;28;20164;-68
2022/10/07 01:18:48;;;;;;;41.95;5.63;;;11.00;99.90;;;;;;5015324;28;20541;-68
2022/10/07 01:21:21;;;;;;;41.30;4.40;;;10.90;99.90;;;;;;5015267;28;20064;-68
2022/10/07 01:24:15;;;;;;;38.23;5.30;;;10.90;99.90;;;;;;5015499;28;20033;-68
2022/10/07 01:27:06;;;;;;;51.28;5.63;;;10.90;99.90;;;;;;5015502;28;20024;-68
2022/10/07 01:29:40;;;;;;;40.83;4.53;;;10.90;99.90;;;;;;5005048;28;20100;-68
2022/10/07 01:32:10;;;;;;;38.78;5.65;;;10.90;99.90;;;;;;5015150;28;20104;-68
2022/10/07 01:34:38;;;;;;;44.20;6.65;;;10.90;99.90;;;;;;5015219;28;20058;-68
2022/10/07 01:37:07;;;;;;;34.38;4.30;;;10.80;99.90;;;;;;5015382;28;20029;-67
2022/10/07 01:39:41;;;;;;;32.25;4.22;;;10.90;99.90;;;;;;5015165;28;20018;-67
2022/10/07 01:42:07;;;;;;;34.25;3.65;;;10.90;99.90;;;;;;5015092;28;20026;-67
2022/10/07 01:44:33;;;;;;;34.30;4.82;;;11.00;99.90;;;;;;5014860;28;20022;-67
2022/10/07 01:46:59;;;;;;;35.65;4.63;;;11.00;99.90;;;;;;5014607;28;20014;-67
2022/10/07 01:49:25;;;;;;;34.15;5.22;;;11.00;99.90;;;;;;5015029;28;20029;-67
2022/10/07 01:52:26;;;;;;;26.50;3.67;;;11.00;99.90;;;;;;5015404;28;20022;-67
2022/10/07 01:55:06;;;;;;;30.98;3.85;;;10.90;99.90;;;;;;5014937;28;20060;-67
2022/10/07 01:58:05;;;;;;;41.05;5.72;;;11.00;99.90;;;;;;5014094;28;20072;-67
2022/10/07 02:00:37;;;;;;;29.60;3.88;;;11.10;99.90;;;;;;5014728;28;20502;-66
2022/10/07 02:03:30;;;;;;;27.35;4.15;;;11.00;99.90;;;;;;5013913;28;20026;-67
2022/10/07 02:06:20;;;;;;;35.67;5.78;;;11.00;99.90;;;;;;5014620;28;20104;-67
2022/10/07 02:08:49;;;;;;;43.72;4.47;;;11.00;99.90;;;;;;5014023;28;20045;-68
2022/10/07 02:11:17;;;;;;;20.38;4.40;;;11.00;99.90;;;;;;5014658;28;20413;-68
2022/10/07 02:14:10;;;;;;;53.30;5.55;;;11.00;99.90;;;;;;5014448;28;20421;-68
2022/10/07 02:16:46;;;;;;;34.30;4.47;;;10.90;99.90;;;;;;5014647;28;20033;-68
2022/10/07 02:19:44;;;;;;;35.75;5.53;;;10.80;99.90;;;;;;5014079;28;20026;-68
2022/10/07 02:22:12;;;;;;;43.40;4.43;;;10.80;99.90;;;;;;4997745;28;20053;-67
2022/10/07 02:24:39;;;;;;;34.88;6.20;;;10.80;99.90;;;;;;5014183;28;20109;-67
2022/10/07 02:27:14;;;;;;;48.13;5.88;;;10.70;99.90;;;;;;5013768;28;20033;-67
2022/10/07 02:29:41;;;;;;;41.47;4.47;;;10.70;99.90;;;;;;5013984;28;20036;-68
2022/10/07 02:32:12;;;;;;;30.20;4.82;;;10.70;99.90;;;;;;5014020;28;20029;-67
2022/10/07 02:34:42;;;;;;;46.20;5.85;;;10.70;99.90;;;;;;5014058;28;20058;-68
2022/10/07 02:37:20;;;;;;;46.42;4.72;;;10.60;99.90;;;;;;5013926;28;20026;-67
2022/10/07 02:39:46;;;;;;;36.20;4.65;;;10.60;99.90;;;;;;5013509;28;20029;-68
2022/10/07 02:42:47;;;;;;;38.22;4.82;;;10.60;99.90;;;;;;5014156;28;20030;-67
2022/10/07 02:45:20;;;;;;;36.45;3.53;;;10.70;99.90;;;;;;4996474;28;20042;-68
2022/10/07 02:47:49;;;;;;;58.65;5.55;;;10.60;99.90;;;;;;5014040;28;20022;-67
2022/10/07 02:50:21;;;;;;;36.08;4.82;;;10.60;99.90;;;;;;5013815;28;20109;-67
2022/10/07 02:52:48;;;;;;;26.27;3.63;;;10.50;99.90;;;;;;5014082;28;20022;-68
2022/10/07 02:55:17;;;;;;;37.97;5.28;;;10.50;99.90;;;;;;5013645;28;20060;-68
2022/10/07 02:57:47;;;;;;;41.30;4.75;;;10.50;99.90;;;;;;5013942;28;20022;-68
2022/10/07 03:00:14;;;;;;;36.03;4.53;;;10.50;99.90;;;;;;5013683;28;20535;-68
2022/10/07 03:03:03;;;;;;;39.20;4.93;;;10.50;99.90;;;;;;5013004;28;20053;-67
2022/10/07 03:05:29;;;;;;;30.05;4.93;;;10.40;99.90;;;;;;5013918;28;20030;-68
2022/10/07 03:08:07;;;;;;;32.47;4.07;;;10.40;99.90;;;;;;5013938;28;20549;-68
2022/10/07 03:10:33;;;;;;;36.65;4.53;;;10.40;99.90;;;;;;5013902;28;20022;-68
2022/10/07 03:13:00;;;;;;;26.45;4.95;;;10.30;99.90;;;;;;5013000;28;20053;-68
2022/10/07 03:15:26;;;;;;;33.30;3.65;;;10.30;99.90;;;;;;5017277;28;20038;-66
2022/10/07 03:17:52;;;;;;;45.22;5.00;;;10.30;99.90;;;;;;5017655;28;20029;-66
2022/10/07 03:20:17;;;;;;;38.85;4.70;;;10.30;99.90;;;;;;5017849;28;20029;-66
2022/10/07 03:22:43;;;;;;;44.13;5.53;;;10.30;99.90;;;;;;5016873;28;20425;-67
2022/10/07 03:25:13;;;;;;;47.65;5.30;;;10.40;99.90;;;;;;5017538;28;20175;-66
2022/10/07 03:27:41;;;;;;;40.25;4.25;;;10.30;99.90;;;;;;5017678;28;20022;-66
2022/10/07 03:30:07;;;;;;;39.72;5.32;;;10.40;99.90;;;;;;5017346;28;20018;-66
2022/10/07 03:32:33;;;;;;;37.05;4.47;;;10.40;99.90;;;;;;5016875;28;20022;-66
2022/10/07 03:34:59;;;;;;;37.63;4.90;;;10.40;99.90;;;;;;5017230;28;20033;-66
2022/10/07 03:37:25;;;;;;;42.10;4.85;;;10.40;99.90;;;;;;5017459;28;20050;-67
2022/10/07 03:39:53;;;;;;;54.50;4.78;;;10.30;99.90;;;;;;5017453;28;20049;-67
2022/10/07 03:42:19;;;;;;;32.65;5.78;;;10.30;99.90;;;;;;5017127;28;20037;-68
2022/10/07 03:44:47;;;;;;;33.63;5.40;;;10.40;99.90;;;;;;5016844;28;20388;-67
2022/10/07 03:47:14;;;;;;;47.05;5.00;;;10.40;99.90;;;;;;5017076;28;20022;-68
2022/10/07 03:49:40;;;;;;;43.20;6.10;;;10.30;99.90;;;;;;5017271;28;20473;-68
2022/10/07 03:52:05;;;;;;;49.40;6.07;;;10.30;99.90;;;;;;5017265;28;20053;-68
2022/10/07 03:54:32;;;;;;;25.20;4.40;;;10.40;99.90;;;;;;5015593;28;20022;-67
2022/10/07 03:56:58;;;;;;;49.03;4.32;;;10.30;99.90;;;;;;5016699;28;20034;-68
2022/10/07 03:59:23;;;;;;;45.70;5.97;;;10.30;99.90;;;;;;5016872;28;20076;-68
2022/10/07 04:01:49;;;;;;;40.35;5.43;;;10.40;99.90;;;;;;5016995;28;20037;-67
2022/10/07 04:04:14;;;;;;;36.40;6.10;;;10.40;99.90;;;;;;5016068;28;20037;-68
2022/10/07 04:06:42;;;;;;;34.75;4.88;;;10.40;99.90;;;;;;5015436;28;20036;-67
2022/10/07 04:09:08;;;;;;;40.05;5.47;;;10.40;99.90;;;;;;5016931;28;20022;-68
2022/10/07 04:11:34;;;;;;;36.00;4.85;;;10.40;99.90;;;;;;5016582;28;20029;-68
2022/10/07 04:13:59;;;;;;;31.45;4.00;;;10.40;99.90;;;;;;5015906;28;20117;-67
2022/10/07 04:16:26;;;;;;;58.08;5.65;;;10.30;99.90;;;;;;5016549;28;20033;-68
2022/10/07 04:18:55;;;;;;;39.83;4.57;;;10.30;99.90;;;;;;5016737;28;20037;-68
2022/10/07 04:21:21;;;;;;;42.38;7.82;;;10.40;99.90;;;;;;5016688;28;20428;-68
2022/10/07 04:23:46;;;;;;;43.22;6.20;;;10.40;99.90;;;;;;5016480;28;20049;-67
2022/10/07 04:26:12;;;;;;;35.88;4.18;;;10.40;99.90;;;;;;5016438;28;20470;-68
2022/10/07 04:28:38;;;;;;;44.85;5.50;;;10.30;99.90;;;;;;5016065;28;20053;-68
2022/10/07 04:31:09;;;;;;;46.00;5.95;;;10.20;99.90;;;;;;5016273;28;20030;-68
2022/10/07 04:33:38;;;;;;;40.13;4.05;;;10.20;99.90;;;;;;5016473;28;20113;-68
2022/10/07 04:36:05;;;;;;;44.65;5.15;;;10.20;99.90;;;;;;5016099;28;20029;-67
2022/10/07 04:38:33;;;;;;;37.42;4.72;;;10.10;99.90;;;;;;5015667;28;20386;-67
2022/10/07 04:41:03;;;;;;;57.17;4.85;;;10.10;99.90;;;;;;5016169;28;20080;-67
2022/10/07 04:43:32;;;;;;;45.55;6.28;;;10.10;99.90;;;;;;5016221;28;20030;-68
2022/10/07 04:46:06;;;;;;;33.42;4.90;;;10.10;99.90;;;;;;5016307;28;20093;-68
2022/10/07 04:48:32;;;;;;;28.10;5.18;;;10.10;99.90;;;;;;5016084;28;20474;-67
2022/10/07 04:51:07;;;;;;;41.72;5.38;;;10.10;99.90;;;;;;5015402;28;20037;-67
2022/10/07 04:53:34;;;;;;;45.60;4.93;;;10.10;99.90;;;;;;5016090;28;20036;-68
2022/10/07 04:55:59;;;;;;;35.35;5.45;;;10.10;99.90;;;;;;5016090;28;20029;-67
2022/10/07 04:58:26;;;;;;;30.17;6.22;;;10.10;99.90;;;;;;5016333;28;20022;-68
2022/10/07 05:00:53;;;;;;;32.22;5.00;;;10.10;99.90;;;;;;5015282;28;20113;-67
2022/10/07 05:03:21;;;;;;;39.63;4.63;;;10.10;99.90;;;;;;5016740;28;20367;-68
2022/10/07 05:05:49;;;;;;;25.05;4.03;;;10.20;99.90;;;;;;5015930;28;20351;-68
2022/10/07 05:08:18;;;;;;;37.05;5.78;;;10.10;99.90;;;;;;5015601;28;20069;-67
2022/10/07 05:10:44;;;;;;;28.48;4.53;;;10.10;99.90;;;;;;5015813;28;20378;-68
2022/10/07 05:13:14;;;;;;;35.60;6.07;;;10.10;99.90;;;;;;5014684;28;20026;-67
2022/10/07 05:16:08;;;;;;;45.00;5.75;;;10.10;99.90;;;;;;5015464;28;20037;-67
2022/10/07 05:18:37;;;;;;;36.45;4.85;;;10.10;99.90;;;;;;5015864;28;20029;-67
2022/10/07 05:21:07;;;;;;;20.63;4.13;;;10.00;99.90;;;;;;5015304;28;20034;-68
2022/10/07 05:23:35;;;;;;;33.33;4.35;;;10.00;99.90;;;;;;5015377;28;20029;-68
2022/10/07 05:26:06;;;;;;;28.70;6.30;;;9.90;99.90;;;;;;5014606;28;20500;-67
2022/10/07 05:28:32;;;;;;;28.35;5.72;;;9.90;99.90;;;;;;5015330;28;20432;-68
2022/10/07 05:31:06;;;;;;;29.27;6.10;;;9.90;99.90;;;;;;5015424;28;20018;-68
2022/10/07 05:33:32;;;;;;;33.10;8.00;;;9.80;99.90;;;;;;5015153;28;20018;-68
2022/10/07 05:35:58;;;;;;;26.15;6.95;;;9.80;99.90;;;;;;5014526;28;20049;-68
2022/10/07 05:38:24;;;;;;;32.80;6.55;;;9.80;99.90;;;;;;5014489;28;20056;-68
2022/10/07 05:40:58;;;;;;;37.25;6.53;;;9.80;99.90;;;;;;5015224;28;20490;-68
2022/10/07 05:43:24;;;;;;;31.17;8.05;;;9.80;99.90;;;;;;5014742;28;20033;-68
2022/10/07 05:46:04;;;;;;;32.67;8.05;;;9.70;99.90;;;;;;5014851;28;20501;-68
2022/10/07 05:48:31;;;;;;;24.42;6.38;;;9.70;99.90;;;;;;5014657;28;20041;-67
2022/10/07 05:50:57;;;;;;;34.42;7.30;;;9.70;99.90;;;;;;5015184;28;20052;-68
2022/10/07 05:53:24;;;;;;;33.78;7.10;;;9.60;99.90;;;;;;5014681;28;20040;-68
2022/10/07 05:55:50;;;;;;;23.75;5.90;;;9.60;99.90;;;;;;5014951;28;20515;-67
2022/10/07 05:58:16;;;;;;;28.55;6.63;;;9.70;99.90;;;;;;5014661;28;20033;-68
2022/10/07 06:00:54;;;;;;;26.27;6.03;;;9.70;99.90;;;;;;5014108;28;20109;-67
2022/10/07 06:03:21;;;;;;;33.80;7.28;;;9.70;99.90;;;;;;5014428;28;20418;-67
2022/10/07 06:05:49;;;;;;;24.52;6.65;;;9.70;99.90;;;;;;5014545;28;20443;-68
2022/10/07 06:08:16;;;;;;;34.00;6.55;;;9.70;99.90;;;;;;5014524;28;20018;-68
2022/10/07 06:13:26;;;;;;;30.25;6.45;;;9.70;99.90;;;;;;5014358;28;20045;-68
2022/10/07 06:15:51;;;;;;;27.75;6.53;;;9.70;99.90;;;;;;5013870;28;20026;-68
2022/10/07 06:18:17;;;;;;;37.80;8.10;;;9.70;99.90;;;;;;5014493;28;20021;-67
2022/10/07 06:20:52;;;;;;;28.70;7.15;;;9.80;99.90;;;;;;5014346;28;20053;-67
2022/10/07 06:23:17;;;;;;;39.65;7.53;;;9.80;99.90;;;;;;5014395;28;20478;-68
2022/10/07 06:25:50;;;;;;;30.23;6.60;;;9.90;99.90;;;;;;5013716;28;20084;-67
2022/10/07 06:28:18;;;;;;;32.28;7.57;;;9.80;99.90;;;;;;5014438;28;20049;-68
2022/10/07 06:30:44;;;;;;;32.75;6.55;;;9.90;99.90;;;;;;5014640;28;20374;-68
2022/10/07 06:33:09;;;;;;;25.30;6.57;;;9.90;99.90;;;;;;5014299;28;20022;-68
2022/10/07 06:35:35;;;;;;;30.77;6.90;;;9.90;99.90;;;;;;5013553;28;20076;-68
2022/10/07 06:38:00;;;;;;;33.95;6.70;;;10.00;99.90;;;;;;5013992;28;20084;-68
2022/10/07 06:40:26;;;;;;;30.75;6.43;;;10.00;99.90;;;;;;5014480;28;20076;-67
2022/10/07 06:42:51;;;;;;;39.03;6.30;;;10.10;99.90;;;;;;5013819;28;20113;-68
2022/10/07 06:45:17;;;;;;;42.90;7.03;;;10.20;99.90;;;;;;5013368;28;20026;-67
2022/10/07 06:47:43;;;;;;;36.97;5.65;;;10.20;99.90;;;;;;5014337;28;20029;-68
2022/10/07 06:50:08;;;;;;;34.33;6.32;;;10.30;99.90;;;;;;5013803;28;20446;-68
2022/10/07 06:52:34;;;;;;;28.25;5.43;;;10.30;99.90;;;;;;5013690;28;20432;-68
2022/10/07 06:54:59;;;;;;;35.53;5.78;;;10.40;99.90;;;;;;5013972;28;20474;-68
2022/10/07 06:57:25;;;;;;;37.17;6.13;;;10.40;99.90;;;;;;5013373;28;20025;-68
2022/10/07 06:59:53;;;;;;;34.00;5.85;;;10.50;99.90;;;;;;5014049;28;20018;-68
2022/10/07 07:02:19;;;;;;;31.30;5.82;;;10.60;99.90;;;;;;5012424;28;20028;-68
2022/10/07 07:04:44;;;;;;;31.17;5.95;;;10.60;99.90;;;;;;5012968;28;20030;-67
2022/10/07 07:07:10;;;;;;;28.13;5.78;;;10.70;99.90;;;;;;5013580;28;20025;-68
2022/10/07 07:09:36;;;;;;;32.70;5.57;;;10.70;99.90;;;;;;5013892;28;20033;-67
2022/10/07 07:12:01;;;;;;;33.80;5.97;;;10.80;99.90;;;;;;5013811;28;20029;-68
2022/10/07 07:14:27;;;;;;;32.25;6.57;;;10.80;99.90;;;;;;5013598;28;20038;-68
2022/10/07 07:16:53;;;;;;;32.13;5.80;;;10.90;99.90;;;;;;5013502;28;20022;-68
2022/10/07 07:19:18;;;;;;;31.52;6.60;;;11.00;99.90;;;;;;5013107;28;20038;-68
2022/10/07 07:21:44;;;;;;;22.75;5.40;;;11.10;99.90;;;;;;5013536;28;20505;-68
2022/10/07 07:24:10;;;;;;;36.28;5.63;;;11.10;99.90;;;;;;5013646;28;20471;-68
2022/10/07 07:26:36;;;;;;;30.13;5.25;;;11.20;99.90;;;;;;5013436;28;20417;-68
2022/10/07 07:29:04;;;;;;;36.67;6.95;;;11.20;99.90;;;;;;5013159;28;20030;-67
2022/10/07 07:31:32;;;;;;;31.33;6.18;;;11.20;99.90;;;;;;5013715;28;20054;-69
2022/10/07 07:34:00;;;;;;;29.77;4.80;;;11.30;99.90;;;;;;5013421;28;20029;-68
2022/10/07 07:36:28;;;;;;;32.83;7.03;;;11.40;99.90;;;;;;5013367;28;20497;-68
2022/10/07 07:38:59;;;;;;;18.48;5.85;;;11.40;99.90;;;;;;5013031;28;20482;-68
2022/10/07 07:41:28;;;;;;;26.20;5.68;;;11.50;99.90;;;;;;5013643;28;20029;-68
2022/10/07 07:43:56;;;;;;;26.42;5.82;;;11.60;99.90;;;;;;5013171;28;20018;-68
2022/10/07 07:46:24;;;;;;;26.13;4.72;;;11.70;99.90;;;;;;5013343;28;20033;-68
2022/10/07 07:48:51;;;;;;;28.80;5.93;;;11.60;99.90;;;;;;5012700;28;20414;-68
2022/10/07 07:51:17;;;;;;;34.08;6.75;;;11.80;99.90;;;;;;5013625;28;20030;-68
2022/10/07 07:53:43;;;;;;;26.20;5.80;;;11.80;99.90;;;;;;5013110;28;20470;-69
2022/10/07 07:56:10;;;;;;;31.00;6.00;;;11.90;99.90;;;;;;5012710;28;20036;-68
2022/10/07 07:58:37;;;;;;;35.33;7.15;;;11.90;99.90;;;;;;5013138;28;20096;-68
2022/10/07 08:01:14;;;;;;;29.90;6.10;;;11.90;99.90;;;;;;5015532;28;20092;-68
2022/10/07 08:03:42;;;;;;;46.83;8.98;;;12.00;99.90;;;;;;5017335;28;20038;-68
2022/10/07 08:06:09;;;;;;;27.88;5.60;;;12.00;99.90;;;;;;5017045;28;20021;-66
2022/10/07 08:08:35;;;;;;;25.00;5.45;;;12.00;99.90;;;;;;5016297;28;20076;-68
2022/10/07 08:11:08;;;;;;;39.42;6.20;;;11.90;99.90;;;;;;5016820;28;20026;-68
2022/10/07 08:13:34;;;;;;;32.33;5.80;;;12.00;99.90;;;;;;5016637;28;20065;-68
2022/10/07 08:16:02;;;;;;;28.58;5.75;;;12.00;99.90;;;;;;5016576;28;20032;-68
2022/10/07 08:18:28;;;;;;;34.50;7.32;;;12.20;99.90;;;;;;5016555;28;20057;-68
2022/10/07 08:20:58;;;;;;;37.83;6.50;;;12.20;99.90;;;;;;5016250;28;20465;-68
2022/10/07 08:23:25;;;;;;;28.77;6.38;;;12.20;99.90;;;;;;5016275;28;20030;-68
2022/10/07 08:25:55;;;;;;;51.10;6.80;;;12.20;99.90;;;;;;5016324;28;20018;-68
2022/10/07 08:28:21;;;;;;;35.38;8.93;;;12.30;99.90;;;;;;5016265;28;20030;-68
2022/10/07 08:30:48;;;;;;;33.85;6.38;;;12.30;99.90;;;;;;5016525;28;20022;-68
2022/10/07 08:33:13;;;;;;;45.40;7.90;;;12.30;99.90;;;;;;5016390;28;20021;-68
2022/10/07 08:35:39;;;;;;;41.95;8.52;;;12.40;99.90;;;;;;5015786;28;20029;-68
2022/10/07 08:38:04;;;;;;;35.65;6.75;;;12.50;99.90;;;;;;5016191;28;20053;-68
2022/10/07 08:40:30;;;;;;;35.78;6.93;;;12.60;99.90;;;;;;5016030;28;20390;-68
2022/10/07 08:42:55;;;;;;;37.05;8.00;;;12.60;99.90;;;;;;5016268;28;20030;-68
2022/10/07 08:45:30;;;;;;;29.30;6.93;;;12.60;99.90;;;;;;5015980;28;20026;-68
2022/10/07 08:47:59;;;;;;;40.67;7.00;;;12.60;99.90;;;;;;5014962;28;20077;-68
2022/10/07 08:50:39;;;;;;;45.00;6.40;;;12.70;99.90;;;;;;5015956;28;20359;-68
2022/10/07 08:53:11;;;;;;;36.65;7.65;;;12.70;99.90;;;;;;5015894;28;20029;-68
2022/10/07 08:55:52;;;;;;;35.58;6.90;;;12.80;99.90;;;;;;5016146;28;20026;-68
2022/10/07 08:58:48;;;;;;;65.50;9.25;;;12.80;99.90;;;;;;5015381;28;20026;-68
2022/10/07 09:02:08;;;;;;;44.05;7.53;;;12.80;99.90;;;;;;5016045;28;20080;-68
2022/10/07 09:04:42;;;;;;;35.85;6.43;;;12.90;99.90;;;;;;4955104;29;20031;-68
2022/10/07 09:07:09;;;;;;;39.45;7.25;;;12.90;99.90;;;;;;5006590;28;20060;-68
2022/10/07 09:09:41;;;;;;;33.90;7.75;;;13.00;99.90;;;;;;5014993;28;20018;-68
2022/10/07 09:12:15;;;;;;;41.42;7.45;;;13.00;99.90;;;;;;5014513;28;20433;-68
2022/10/07 09:14:44;;;;;;;27.75;6.93;;;13.10;99.90;;;;;;5065651;22;20040;-69
2022/10/07 09:17:20;;;;;;;48.88;7.88;;;13.20;99.90;;;;;;5035692;28;20033;-69
2022/10/07 09:19:55;;;;;;;40.28;7.15;;;13.20;99.90;;;;;;5049601;28;20488;-69
2022/10/07 09:22:33;;;;;;;68.72;10.93;;;13.30;99.90;;;;;;5055443;28;20384;-69
2022/10/07 09:25:14;;;;;;;42.22;7.25;;;13.30;99.90;;;;;;5055183;28;20075;-69
2022/10/07 09:27:40;;;;;;;48.33;9.23;;;13.40;99.90;;;;;;5055210;28;20033;-69
2022/10/07 09:30:06;;;;;;;39.92;7.55;;;13.40;99.90;;;;;;5056097;28;20063;-69
2022/10/07 09:32:34;;;;;;;65.80;7.43;;;13.40;99.90;;;;;;5055974;28;20021;-69
2022/10/07 09:35:04;;;;;;;55.13;7.68;;;13.50;99.90;;;;;;5054961;28;20036;-69
2022/10/07 09:37:30;;;;;;;39.80;7.32;;;13.50;99.90;;;;;;5055138;28;20559;-69
2022/10/07 09:40:19;;;;;;;41.25;6.03;;;13.50;99.90;;;;;;5054777;28;20064;-69
2022/10/07 09:42:45;;;;;;;45.63;6.28;;;13.60;99.90;;;;;;5054627;28;20075;-69
2022/10/07 09:45:30;;;;;;;48.28;6.88;;;13.60;99.90;;;;;;5053218;28;20017;-69
2022/10/07 09:48:05;;;;;;;42.22;6.45;;;13.60;99.90;;;;;;5054181;28;20032;-69
2022/10/07 09:50:40;;;;;;;52.28;7.50;;;13.60;99.90;;;;;;5054513;28;20370;-69
2022/10/07 09:53:18;;;;;;;45.88;7.28;;;13.70;99.90;;;;;;5054520;28;20024;-69
2022/10/07 09:55:44;;;;;;;40.83;6.47;;;13.90;99.90;;;;;;5054164;28;20040;-69
2022/10/07 09:58:43;;;;;;;35.03;5.97;;;14.10;99.90;;;;;;5054401;28;20497;-69
2022/10/07 10:01:09;;;;;;;34.33;6.30;;;14.30;99.90;;;;;;5050278;28;20040;-69
2022/10/07 10:03:36;;;;;;;39.45;6.72;;;14.60;99.90;;;;;;5054410;28;20021;-71
2022/10/07 10:06:08;;;;;;;24.67;4.90;;;14.60;99.90;;;;;;5054413;28;20056;-70
2022/10/07 10:08:40;;;;;;;34.88;5.72;;;14.70;99.90;;;;;;5054354;28;20060;-70
2022/10/07 10:11:24;;;;;;;37.45;5.60;;;14.60;99.90;;;;;;5054197;28;20025;-70
2022/10/07 10:13:51;;;;;;;36.05;6.20;;;14.80;99.90;;;;;;5054210;28;20028;-70
2022/10/07 10:16:33;;;;;;;46.13;7.28;;;14.80;99.90;;;;;;5054179;28;20029;-70
2022/10/07 10:19:01;;;;;;;38.10;6.40;;;14.70;99.90;;;;;;5053590;28;20487;-70
2022/10/07 10:21:38;;;;;;;55.08;9.40;;;14.90;99.90;;;;;;5054272;28;20029;-70
2022/10/07 10:27:18;;;;;;;39.50;5.65;;;15.10;99.90;;;;;;5053605;28;20024;-69
2022/10/07 10:29:58;;;;;;;40.25;5.03;;;15.30;99.90;;;;;;5054046;28;20017;-69
2022/10/07 10:32:56;;;;;;;29.98;5.25;;;15.30;99.90;;;;;;5053717;28;20029;-69
2022/10/07 10:35:27;;;;;;;38.38;6.25;;;15.20;99.90;;;;;;5037821;28;20497;-69
2022/10/07 10:38:22;;;;;;;35.33;5.55;;;15.30;99.90;;;;;;5053547;28;20024;-69
2022/10/07 10:40:57;;;;;;;42.97;6.85;;;15.50;99.90;;;;;;5053785;28;20503;-69
2022/10/07 10:44:16;;;;;;;44.78;6.85;;;15.60;99.90;;;;;;5053018;28;20032;-69
2022/10/07 10:47:32;;;;;;;40.95;5.28;;;15.70;99.90;;;;;;4956487;28;20019;-70
2022/10/07 10:50:25;;;;;;;26.58;5.38;;;15.70;99.90;;;;;;4940418;28;20388;-69
2022/10/07 10:53:07;;;;;;;31.53;4.67;;;16.00;99.90;;;;;;5054088;28;20045;-69
2022/10/07 10:55:46;;;;;;;22.80;4.68;;;15.80;99.90;;;;;;5053611;28;20017;-69
2022/10/07 10:58:34;;;;;;;45.22;5.18;;;15.90;99.90;;;;;;5053455;28;20075;-69
2022/10/07 11:01:30;;;;;;;27.75;4.75;;;16.10;99.90;;;;;;5053483;28;20480;-69
2022/10/07 11:04:32;;;;;;;46.05;6.63;;;16.20;99.90;;;;;;5052702;28;20139;-69
2022/10/07 11:07:31;;;;;;;41.15;5.47;;;16.10;99.90;;;;;;5053469;28;20014;-69
2022/10/07 11:10:20;;;;;;;43.47;5.40;;;16.10;99.90;;;;;;5053071;28;20070;-69
2022/10/07 11:12:53;;;;;;;28.83;5.10;;;16.30;99.90;;;;;;5053689;28;20028;-69
2022/10/07 11:16:05;;;;;;;30.90;5.88;;;16.30;99.90;;;;;;5052722;28;20040;-69
2022/10/07 11:18:55;;;;;;;32.53;4.47;;;16.20;99.90;;;;;;5045323;28;20060;-69
2022/10/07 11:21:28;;;;;;;36.92;5.47;;;16.30;99.90;;;;;;5053561;28;20426;-69
2022/10/07 11:24:16;;;;;;;33.72;6.18;;;16.20;99.90;;;;;;5052725;28;20036;-71
2022/10/07 11:27:09;;;;;;;29.38;5.93;;;16.20;99.90;;;;;;5053922;28;20105;-71
2022/10/07 11:29:57;;;;;;;43.15;5.65;;;16.10;99.90;;;;;;5053544;28;20057;-70
2022/10/07 11:32:46;;;;;;;38.10;5.18;;;15.90;99.90;;;;;;5052627;28;20032;-69
2022/10/07 11:35:34;;;;;;;36.03;5.55;;;15.90;99.90;;;;;;5054071;28;20025;-69
2022/10/07 11:38:11;;;;;;;26.35;4.72;;;16.10;99.90;;;;;;5057896;28;20055;-69
2022/10/07 11:40:58;;;;;;;33.53;5.38;;;16.10;99.90;;;;;;5057114;28;20021;-69
2022/10/07 11:43:24;;;;;;;34.60;5.78;;;16.10;99.90;;;;;;5057215;28;20104;-69
2022/10/07 11:45:54;;;;;;;38.42;4.75;;;16.00;99.90;;;;;;5056331;28;20045;-69
2022/10/07 11:48:34;;;;;;;33.70;5.15;;;16.30;99.90;;;;;;5057213;28;20021;-69
2022/10/07 11:51:05;;;;;;;34.97;5.30;;;16.30;99.90;;;;;;5057133;28;20032;-69
2022/10/07 11:53:35;;;;;;;33.05;5.63;;;16.10;99.90;;;;;;5057106;28;20025;-69
2022/10/07 11:56:13;;;;;;;38.55;4.80;;;16.10;99.90;;;;;;5057867;28;20028;-69
2022/10/07 11:58:39;;;;;;;37.00;5.97;;;16.10;99.90;;;;;;5057557;28;20477;-69
2022/10/07 12:01:29;;;;;;;35.22;6.45;;;16.30;99.90;;;;;;5056848;28;20044;-69
2022/10/07 12:04:21;;;;;;;39.30;5.68;;;16.10;99.90;;;;;;5056433;28;20037;-69
2022/10/07 12:07:24;;;;;;;23.08;4.88;;;16.30;99.90;;;;;;5056846;28;20021;-70
2022/10/07 12:10:08;;;;;;;34.92;5.47;;;16.20;99.90;;;;;;5055852;28;20100;-69
2022/10/07 12:12:49;;;;;;;37.08;7.22;;;16.20;99.90;;;;;;5056463;28;20024;-69
2022/10/07 12:15:28;;;;;;;41.25;6.55;;;16.40;99.90;;;;;;5056321;28;20044;-69
2022/10/07 12:18:05;;;;;;;28.42;5.63;;;16.30;99.90;;;;;;5056794;28;20048;-69
2022/10/07 12:20:45;;;;;;;34.75;5.85;;;16.50;99.90;;;;;;5056515;28;20547;-69
2022/10/07 12:23:20;;;;;;;24.17;5.15;;;16.40;99.90;;;;;;5054588;28;20116;-69
2022/10/07 12:25:57;;;;;;;30.55;5.38;;;16.20;99.90;;;;;;5056040;28;20013;-69
2022/10/07 12:28:27;;;;;;;37.92;5.25;;;16.10;99.90;;;;;;5056409;28;20017;-69
2022/10/07 12:30:59;;;;;;;41.50;5.60;;;16.00;99.90;;;;;;5037795;28;20021;-69
2022/10/07 12:33:28;;;;;;;33.95;5.63;;;16.30;99.90;;;;;;5036148;28;20496;-69
2022/10/07 12:35:55;;;;;;;41.58;5.40;;;16.20;99.90;;;;;;5036408;28;20029;-69
2022/10/07 12:38:26;;;;;;;30.45;5.95;;;16.30;99.90;;;;;;5035950;28;20029;-69
2022/10/07 12:41:09;;;;;;;37.58;6.88;;;16.30;99.90;;;;;;5041625;28;20012;-69
2022/10/07 12:44:00;;;;;;;31.17;5.60;;;16.20;99.90;;;;;;5056057;28;20051;-69
2022/10/07 12:46:31;;;;;;;34.53;5.45;;;16.20;99.90;;;;;;5055927;28;20037;-69
2022/10/07 12:49:05;;;;;;;31.88;4.57;;;16.20;99.90;;;;;;5055216;28;20029;-69
2022/10/07 12:51:38;;;;;;;24.10;5.10;;;16.40;99.90;;;;;;5055955;28;20028;-69
2022/10/07 12:54:37;;;;;;;27.20;4.43;;;16.30;99.90;;;;;;5056414;28;20017;-69
2022/10/07 12:57:10;;;;;;;39.38;5.65;;;16.30;99.90;;;;;;5055064;28;20747;-69
2022/10/07 13:00:06;;;;;;;35.95;5.07;;;16.50;99.90;;;;;;5056033;28;20079;-70
2022/10/07 13:02:51;;;;;;;38.58;4.68;;;16.40;99.90;;;;;;5027517;28;20107;-70
2022/10/07 13:05:48;;;;;;;33.67;5.15;;;16.10;99.90;;;;;;5055561;28;20120;-70
2022/10/07 13:09:04;;;;;;;35.75;4.80;;;15.90;99.90;;;;;;5055197;28;20051;-70
2022/10/07 13:12:05;;;;;;;23.95;4.95;;;15.80;99.90;;;;;;5055618;28;20025;-70
2022/10/07 13:14:54;;;;;;;37.83;5.35;;;15.70;99.90;;;;;;5055127;28;20086;-70